createdAt,value
2022-10-17T00:00:33.383Z,1.30
2022-10-17T00:03:02.483Z,1.30
2022-10-17T00:05:30.150Z,1.80
2022-10-17T00:07:57.744Z,1.10
2022-10-17T00:10:25.430Z,1.30
2022-10-17T00:12:53.494Z,0.98
2022-10-17T00:15:22.036Z,1.95
2022-10-17T00:17:49.773Z,1.20
2022-10-17T00:20:19.090Z,2.55
2022-10-17T00:22:46.904Z,1.00
2022-10-17T00:25:14.422Z,1.23
2022-10-17T00:27:42.909Z,1.20
2022-10-17T00:30:13.314Z,1.10
2022-10-17T00:32:41.037Z,1.17
2022-10-17T00:35:09.536Z,1.05
2022-10-17T00:37:38.535Z,1.20
2022-10-17T00:40:07.742Z,1.23
2022-10-17T00:42:35.831Z,1.38
2022-10-17T00:45:23.029Z,1.40
2022-10-17T00:47:55.498Z,1.17
2022-10-17T00:52:53.391Z,0.98
2022-10-17T00:55:23.960Z,1.20
2022-10-17T00:57:52.399Z,1.38
2022-10-17T01:00:20.209Z,1.85
2022-10-17T01:02:48.382Z,1.10
2022-10-17T01:05:17.751Z,1.20
2022-10-17T01:07:47.017Z,1.30
2022-10-17T01:10:16.524Z,1.50
2022-10-17T01:12:58.054Z,1.08
2022-10-17T01:15:39.207Z,1.50
2022-10-17T01:18:16.107Z,0.98
2022-10-17T01:21:24.763Z,1.20
2022-10-17T01:24:18.653Z,1.48
2022-10-17T01:27:09.481Z,0.80
2022-10-17T01:29:52.031Z,1.20
2022-10-17T01:32:25.745Z,1.20
2022-10-17T01:35:00.865Z,1.55
2022-10-17T01:37:34.297Z,1.20
2022-10-17T01:40:07.905Z,1.60
2022-10-17T01:42:41.097Z,1.40
2022-10-17T01:45:13.692Z,1.00
2022-10-17T01:47:43.938Z,1.45
2022-10-17T01:50:16.500Z,1.50
2022-10-17T01:52:49.246Z,1.63
2022-10-17T01:55:21.306Z,1.00
2022-10-17T01:57:52.462Z,1.13
2022-10-17T02:00:23.176Z,0.90
2022-10-17T02:02:56.131Z,0.95
2022-10-17T02:05:28.685Z,1.20
2022-10-17T02:07:56.214Z,1.20
2022-10-17T02:10:36.422Z,1.35
2022-10-17T02:13:10.833Z,1.08
2022-10-17T02:15:56.050Z,0.98
2022-10-17T02:18:47.242Z,0.80
2022-10-17T02:21:19.841Z,1.17
2022-10-17T02:23:54.993Z,1.10
2022-10-17T02:26:27.771Z,0.93
2022-10-17T02:29:05.149Z,1.30
2022-10-17T02:31:38.989Z,1.50
2022-10-17T02:34:12.016Z,1.50
2022-10-17T02:36:45.437Z,1.35
2022-10-17T02:39:14.639Z,1.10
2022-10-17T02:41:43.418Z,1.45
2022-10-17T02:44:12.249Z,1.05
2022-10-17T02:46:42.567Z,1.10
2022-10-17T02:52:40.159Z,1.10
2022-10-17T02:55:15.027Z,0.98
2022-10-17T02:57:46.400Z,1.42
2022-10-17T03:00:17.776Z,1.15
2022-10-17T03:02:47.831Z,1.20
2022-10-17T03:05:21.054Z,1.42
2022-10-17T03:07:50.627Z,1.15
2022-10-17T03:10:19.074Z,1.20
2022-10-17T03:12:46.951Z,1.40
2022-10-17T03:15:15.319Z,1.23
2022-10-17T03:17:43.307Z,1.23
2022-10-17T03:20:11.806Z,1.50
2022-10-17T03:22:39.648Z,1.30
2022-10-17T03:25:09.596Z,1.20
2022-10-17T03:27:37.512Z,1.27
2022-10-17T03:30:05.972Z,1.20
2022-10-17T03:32:34.739Z,1.10
2022-10-17T03:35:02.727Z,1.60
2022-10-17T03:37:33.590Z,1.35
2022-10-17T03:40:01.523Z,1.02
2022-10-17T03:42:30.767Z,1.42
2022-10-17T03:44:58.559Z,1.38
2022-10-17T03:47:26.607Z,1.15
2022-10-17T03:49:54.718Z,1.10
2022-10-17T03:52:22.628Z,1.38
2022-10-17T03:54:51.595Z,1.23
2022-10-17T03:57:20.351Z,1.58
2022-10-17T03:59:51.454Z,2.10
2022-10-17T04:02:19.388Z,1.23
2022-10-17T04:04:47.406Z,1.40
2022-10-17T04:07:15.584Z,1.30
2022-10-17T04:09:43.620Z,1.30
2022-10-17T04:12:11.667Z,1.10
2022-10-17T04:14:39.901Z,1.30
2022-10-17T04:17:09.073Z,0.95
2022-10-17T04:19:37.416Z,1.27
2022-10-17T04:22:08.611Z,1.35
2022-10-17T04:24:36.537Z,1.70
2022-10-17T04:27:04.468Z,1.20
2022-10-17T04:29:32.838Z,1.25
2022-10-17T04:32:00.808Z,1.40
2022-10-17T04:34:30.078Z,2.22
2022-10-17T04:36:58.022Z,1.75
2022-10-17T04:39:25.970Z,2.35
2022-10-17T04:41:53.958Z,1.83
2022-10-17T04:44:30.928Z,1.98
2022-10-17T04:46:58.790Z,1.55
2022-10-17T04:49:26.813Z,1.40
2022-10-17T04:51:56.058Z,1.83
2022-10-17T04:54:27.202Z,1.88
2022-10-17T04:56:55.103Z,1.70
2022-10-17T04:59:23.314Z,1.40
2022-10-17T05:01:51.380Z,1.38
2022-10-17T05:04:22.356Z,2.00
2022-10-17T05:07:01.536Z,1.80
2022-10-17T05:09:29.824Z,2.17
2022-10-17T05:11:57.828Z,1.95
2022-10-17T05:14:28.064Z,3.15
2022-10-17T05:30:11.579Z,3.17
2022-10-17T05:32:39.598Z,2.97
2022-10-17T05:35:08.321Z,2.42
2022-10-17T05:37:36.329Z,2.75
2022-10-17T05:40:04.858Z,2.05
2022-10-17T05:42:33.272Z,1.65
2022-10-17T05:45:01.677Z,1.55
2022-10-17T05:47:31.744Z,1.92
2022-10-17T05:50:12.119Z,1.90
2022-10-17T06:40:33.712Z,2.53
2022-10-17T06:43:01.624Z,2.65
2022-10-17T06:45:29.502Z,2.40
2022-10-17T06:48:00.250Z,3.17
2022-10-17T08:41:01.405Z,1.52
2022-10-17T08:43:37.093Z,1.83
2022-10-17T08:46:07.662Z,1.70
2022-10-17T08:48:43.992Z,2.05
2022-10-17T08:51:18.323Z,1.83
2022-10-17T08:56:25.147Z,1.80
2022-10-17T08:59:06.346Z,1.42
2022-10-17T09:01:40.136Z,1.50
2022-10-17T09:04:27.289Z,1.33
2022-10-17T09:07:02.160Z,1.10
2022-10-17T09:09:38.300Z,1.15
2022-10-17T09:12:16.588Z,1.15
2022-10-17T09:15:11.620Z,1.40
2022-10-17T09:17:52.028Z,1.45
2022-10-17T09:20:23.551Z,1.10
2022-10-17T09:22:57.784Z,1.23
2022-10-17T09:25:26.637Z,1.33
2022-10-17T09:28:04.272Z,1.67
2022-10-17T09:30:45.089Z,1.20
2022-10-17T09:33:28.213Z,1.30
2022-10-17T09:36:04.701Z,1.25
2022-10-17T09:38:39.829Z,1.10
2022-10-17T09:41:39.430Z,1.05
2022-10-17T09:44:15.505Z,1.02
2022-10-17T09:46:52.026Z,1.10
2022-10-17T09:49:28.669Z,1.10
2022-10-17T09:51:56.343Z,0.90
2022-10-17T09:54:26.832Z,1.13
2022-10-17T09:57:03.004Z,1.10
2022-10-17T09:59:36.818Z,1.00
2022-10-17T10:02:17.926Z,1.02
2022-10-17T10:05:06.474Z,1.10
2022-10-17T10:07:37.828Z,0.90
2022-10-17T10:10:08.388Z,1.13
2022-10-17T10:12:37.839Z,1.00
2022-10-17T10:15:35.717Z,1.30
2022-10-17T10:18:03.504Z,0.90
2022-10-17T10:20:37.038Z,1.00
2022-10-17T10:23:14.041Z,0.90
2022-10-17T10:25:54.282Z,0.75
2022-10-17T10:28:24.221Z,0.85
2022-10-17T10:30:55.254Z,1.20
2022-10-17T10:33:26.313Z,1.55
2022-10-17T10:35:57.718Z,1.10
2022-10-17T10:38:25.458Z,0.93
2022-10-17T10:40:56.154Z,1.10
2022-10-17T10:43:35.840Z,1.20
2022-10-17T10:46:07.588Z,1.48
2022-10-17T10:48:36.407Z,1.20
2022-10-17T10:51:08.932Z,1.00
2022-10-17T10:53:45.184Z,0.90
2022-10-17T10:56:18.043Z,0.95
2022-10-17T10:58:54.094Z,0.88
2022-10-17T11:01:31.072Z,0.93
2022-10-17T11:04:08.969Z,1.00
2022-10-17T11:06:38.906Z,0.90
2022-10-17T11:09:20.467Z,1.93
2022-10-17T11:14:22.210Z,6.75
2022-10-17T11:16:59.112Z,1.27
2022-10-17T11:19:32.632Z,2.65
2022-10-17T11:22:10.316Z,1.10
2022-10-17T11:24:44.290Z,1.80
2022-10-17T11:27:12.092Z,0.90
2022-10-17T11:29:42.320Z,0.85
2022-10-17T11:32:16.312Z,1.20
2022-10-17T11:34:47.494Z,1.23
2022-10-17T11:37:19.647Z,0.90
2022-10-17T11:39:53.084Z,1.20
2022-10-17T11:42:25.759Z,2.00
2022-10-17T11:44:59.895Z,2.22
2022-10-17T11:47:45.654Z,1.33
2022-10-17T11:53:14.913Z,1.70
2022-10-17T11:55:46.678Z,2.22
2022-10-17T11:58:26.772Z,1.20
2022-10-17T12:01:04.250Z,1.30
2022-10-17T12:03:44.123Z,1.70
2022-10-17T12:06:19.731Z,1.00
2022-10-17T12:08:54.965Z,0.98
2022-10-17T12:11:40.713Z,0.90
2022-10-17T12:14:37.460Z,0.88
2022-10-17T12:17:06.422Z,0.55
2022-10-17T12:19:37.742Z,0.60
2022-10-17T12:22:20.735Z,0.75
2022-10-17T12:24:57.092Z,0.73
2022-10-17T12:27:41.499Z,0.75
2022-10-17T12:30:24.640Z,0.85
2022-10-17T12:33:07.455Z,1.00
2022-10-17T12:35:38.420Z,0.85
2022-10-17T12:38:25.973Z,0.70
2022-10-17T12:41:02.797Z,0.60
2022-10-17T12:46:56.891Z,1.02
2022-10-17T12:49:43.159Z,0.80
2022-10-17T12:52:22.333Z,1.13
2022-10-17T12:55:07.158Z,0.60
2022-10-17T12:57:44.725Z,0.88
2022-10-17T13:00:20.874Z,0.75
2022-10-17T13:02:49.481Z,0.70
2022-10-17T13:05:22.569Z,1.30
2022-10-17T13:07:54.008Z,0.57
2022-10-17T13:10:24.387Z,0.63
2022-10-17T13:12:54.788Z,0.70
2022-10-17T13:15:23.021Z,0.85
2022-10-17T13:17:58.085Z,1.15
2022-10-17T13:20:31.276Z,2.38
2022-10-17T13:23:00.967Z,0.70
2022-10-17T13:25:29.446Z,0.90
2022-10-17T13:28:13.242Z,0.70
2022-10-17T13:30:41.013Z,0.90
2022-10-17T13:33:29.490Z,4.55
2022-10-17T13:36:01.046Z,0.77
2022-10-17T13:38:34.875Z,2.90
2022-10-17T13:41:30.475Z,1.20
2022-10-17T13:43:53.946Z,1.38
2022-10-17T13:46:37.341Z,1.30
2022-10-17T13:49:13.722Z,0.70
2022-10-17T13:51:45.476Z,0.85
2022-10-17T13:54:36.608Z,1.00
2022-10-17T13:57:06.219Z,1.10
2022-10-17T13:59:39.622Z,1.30
2022-10-17T14:02:12.550Z,1.38
2022-10-17T14:05:11.730Z,0.65
2022-10-17T14:07:57.984Z,0.85
2022-10-17T14:10:26.007Z,1.08
2022-10-17T14:12:55.130Z,0.90
2022-10-17T14:15:26.431Z,0.90
2022-10-17T14:17:57.961Z,0.70
2022-10-17T14:21:07.780Z,0.95
2022-10-17T14:23:31.339Z,0.93
2022-10-17T14:26:09.156Z,0.95
2022-10-17T14:28:37.180Z,1.02
2022-10-17T14:31:17.492Z,1.13
2022-10-17T14:33:50.537Z,0.88
2022-10-17T14:36:19.478Z,0.80
2022-10-17T14:38:49.291Z,1.42
2022-10-17T17:02:48.485Z,2.17
2022-10-17T17:05:33.627Z,2.67
2022-10-17T17:11:06.356Z,2.50
2022-10-17T17:17:24.467Z,3.00
2022-10-17T17:20:54.548Z,3.00
2022-10-17T17:24:01.489Z,2.67
2022-10-17T17:26:51.051Z,2.88
2022-10-17T17:29:47.198Z,2.80
2022-10-17T17:35:38.157Z,2.60
2022-10-17T17:41:51.194Z,2.13
2022-10-17T17:45:18.139Z,2.83
2022-10-17T17:48:03.628Z,3.70
2022-10-17T17:51:00.112Z,3.45
2022-10-17T17:53:30.182Z,5.03
2022-10-17T17:56:05.724Z,3.60
2022-10-17T17:58:35.790Z,3.53
2022-10-17T18:01:27.753Z,3.10
2022-10-17T18:04:04.267Z,2.40
2022-10-17T18:06:42.416Z,2.33
2022-10-17T18:09:24.653Z,2.35
2022-10-17T18:15:01.435Z,1.88
2022-10-17T18:17:43.472Z,2.10
2022-10-17T18:20:13.363Z,5.38
2022-10-17T18:25:58.335Z,3.33
2022-10-17T18:28:48.468Z,4.00
2022-10-17T18:31:55.193Z,3.30
2022-10-17T18:34:39.394Z,3.75
2022-10-17T18:37:21.471Z,3.70
2022-10-17T18:39:53.301Z,2.53
2022-10-17T18:54:12.124Z,3.20
2022-10-17T19:03:17.874Z,3.90
2022-10-17T19:11:45.391Z,3.75
2022-10-17T20:15:46.511Z,2.65
2022-10-17T20:41:09.438Z,2.60
2022-10-17T20:43:38.219Z,3.03
2022-10-17T20:46:22.900Z,2.90
2022-10-17T20:48:54.758Z,2.75
2022-10-17T20:51:22.500Z,2.80
2022-10-17T20:53:50.330Z,3.30
2022-10-17T20:56:22.540Z,2.60
2022-10-17T20:58:54.741Z,2.58
2022-10-17T21:01:23.091Z,2.97
2022-10-17T21:03:50.991Z,2.45
2022-10-17T21:06:19.529Z,2.65
2022-10-17T21:08:48.270Z,3.22
2022-10-17T21:11:18.805Z,4.30
2022-10-17T21:13:49.015Z,3.65
2022-10-17T21:16:18.940Z,2.75
2022-10-17T21:18:46.638Z,2.65
2022-10-17T21:21:16.613Z,2.50
2022-10-17T21:23:46.306Z,2.58
2022-10-17T21:26:14.843Z,2.47
2022-10-17T21:28:43.240Z,2.83
2022-10-17T21:31:15.904Z,2.60
2022-10-17T21:33:46.795Z,2.78
2022-10-17T21:36:16.730Z,2.85
2022-10-17T21:38:44.862Z,2.85
2022-10-17T21:41:14.484Z,2.58
2022-10-17T21:43:42.954Z,2.78
2022-10-17T21:46:13.998Z,2.92
2022-10-17T21:48:41.666Z,2.72
2022-10-17T21:51:11.893Z,2.75
2022-10-17T21:53:39.581Z,2.80
2022-10-17T21:56:09.099Z,2.30
2022-10-17T21:58:36.732Z,2.72
2022-10-17T22:01:06.726Z,2.53
2022-10-17T22:03:36.825Z,2.40
2022-10-17T22:06:34.533Z,2.65
2022-10-17T22:08:53.807Z,2.80
2022-10-17T22:11:23.745Z,2.40
2022-10-17T22:13:54.848Z,2.65
2022-10-17T22:16:22.839Z,3.30
2022-10-17T22:18:51.817Z,2.72
2022-10-17T22:21:21.241Z,2.30
2022-10-17T22:24:01.429Z,2.90
2022-10-17T22:26:30.995Z,4.35
2022-10-17T22:28:58.710Z,4.35
2022-10-17T22:31:26.828Z,4.13
2022-10-17T22:33:56.458Z,4.40
2022-10-17T22:36:24.167Z,4.78
2022-10-17T22:38:51.823Z,3.60
2022-10-17T22:41:19.730Z,3.55
2022-10-17T22:43:47.377Z,3.10
2022-10-17T22:46:16.934Z,3.28
2022-10-17T22:48:44.750Z,2.88
2022-10-17T22:51:14.139Z,3.22
2022-10-17T22:53:41.735Z,2.20
2022-10-17T22:56:12.062Z,2.75
2022-10-17T22:58:39.824Z,2.90
2022-10-17T23:01:09.259Z,3.05
2022-10-17T23:03:36.960Z,3.05
2022-10-17T23:06:05.217Z,3.25
2022-10-17T23:08:34.536Z,3.08
2022-10-17T23:11:02.457Z,2.92
2022-10-17T23:13:30.024Z,3.05
2022-10-17T23:15:58.364Z,3.97
2022-10-17T23:18:27.180Z,2.95
2022-10-17T23:20:55.118Z,2.83
2022-10-17T23:23:23.224Z,2.45
2022-10-17T23:25:52.810Z,2.70
2022-10-17T23:28:20.499Z,3.45
2022-10-17T23:30:48.093Z,2.75
2022-10-17T23:33:15.690Z,3.28
2022-10-17T23:35:43.453Z,3.00
2022-10-17T23:38:11.264Z,2.90
2022-10-17T23:40:38.856Z,2.78
2022-10-17T23:43:07.758Z,3.17
2022-10-17T23:45:37.186Z,3.47
2022-10-17T23:48:05.662Z,3.42
2022-10-17T23:50:33.229Z,2.60
2022-10-17T23:53:00.791Z,2.65
2022-10-17T23:55:28.428Z,3.50
2022-10-17T23:57:55.947Z,2.55
